createdAt,value
2019-03-06T00:00:42.792Z,70.43
2019-03-06T00:01:42.781Z,70.84
2019-03-06T00:02:42.775Z,70.33
2019-03-06T00:03:42.782Z,70.22
2019-03-06T00:04:42.747Z,70.74
2019-03-06T00:05:42.733Z,70.53
2019-03-06T00:06:42.722Z,70.74
2019-03-06T00:07:42.711Z,71.16
2019-03-06T00:08:42.700Z,71.26
2019-03-06T00:09:42.690Z,71.46
2019-03-06T00:10:42.682Z,71.16
2019-03-06T00:11:42.665Z,71.46
2019-03-06T00:12:42.654Z,71.46
2019-03-06T00:13:42.642Z,71.08
2019-03-06T00:14:42.632Z,70.64
2019-03-06T00:15:42.619Z,70.74
2019-03-06T00:16:42.607Z,70.74
2019-03-06T00:17:42.596Z,70.98
2019-03-06T00:18:42.591Z,71.08
2019-03-06T00:19:42.574Z,71.50
2019-03-06T00:20:42.574Z,72.32
2019-03-06T00:21:42.571Z,71.84
2019-03-06T00:22:42.576Z,71.84
2019-03-06T00:23:42.578Z,72.05
2019-03-06T00:24:42.527Z,72.49
2019-03-06T00:25:42.520Z,72.57
2019-03-06T00:26:42.522Z,72.36
2019-03-06T00:27:42.529Z,72.70
2019-03-06T00:28:42.469Z,72.67
2019-03-06T00:29:42.466Z,72.49
2019-03-06T00:30:42.450Z,72.46
2019-03-06T00:31:42.435Z,71.84
2019-03-06T00:32:42.424Z,71.94
2019-03-06T00:33:42.414Z,72.57
2019-03-06T00:34:42.408Z,71.74
2019-03-06T00:35:42.388Z,72.49
2019-03-06T00:36:42.378Z,72.60
2019-03-06T00:37:42.374Z,72.91
2019-03-06T00:38:42.356Z,73.15
2019-03-06T00:39:42.342Z,73.04
2019-03-06T00:40:42.335Z,73.53
2019-03-06T00:41:42.321Z,73.43
2019-03-06T00:42:42.311Z,73.01
2019-03-06T00:43:42.302Z,72.77
2019-03-06T00:44:42.292Z,72.70
2019-03-06T00:45:42.272Z,72.70
2019-03-06T00:46:42.263Z,72.80
2019-03-06T00:47:42.252Z,72.49
2019-03-06T00:48:42.238Z,71.77
2019-03-06T00:49:42.233Z,71.77
2019-03-06T00:50:42.217Z,71.97
2019-03-06T00:51:42.211Z,71.87
2019-03-06T00:52:42.193Z,71.87
2019-03-06T00:53:42.180Z,71.94
2019-03-06T00:54:42.169Z,72.25
2019-03-06T00:55:42.158Z,71.42
2019-03-06T00:56:42.149Z,71.12
2019-03-06T00:57:42.141Z,71.22
2019-03-06T00:58:42.125Z,71.32
2019-03-06T00:59:42.113Z,72.46
2019-03-06T01:00:42.102Z,71.53
2019-03-06T01:01:42.093Z,71.22
2019-03-06T01:02:42.079Z,71.42
2019-03-06T01:03:42.067Z,71.22
2019-03-06T01:04:42.057Z,70.81
2019-03-06T01:05:42.043Z,71.02
2019-03-06T01:06:42.037Z,70.50
2019-03-06T01:07:42.045Z,70.39
2019-03-06T01:08:42.019Z,70.91
2019-03-06T01:09:41.999Z,70.91
2019-03-06T01:10:41.987Z,70.56
2019-03-06T01:11:41.982Z,70.29
2019-03-06T01:12:41.963Z,70.70
2019-03-06T01:13:41.953Z,70.70
2019-03-06T01:14:41.939Z,70.39
2019-03-06T01:15:41.934Z,70.29
2019-03-06T01:16:41.924Z,70.60
2019-03-06T01:17:41.908Z,70.73
2019-03-06T01:18:41.894Z,70.63
2019-03-06T01:19:41.888Z,70.73
2019-03-06T01:20:41.877Z,70.32
2019-03-06T01:21:41.861Z,70.63
2019-03-06T01:22:41.850Z,70.32
2019-03-06T01:23:41.837Z,70.63
2019-03-06T01:24:41.830Z,70.63
2019-03-06T01:25:41.819Z,70.66
2019-03-06T01:26:41.804Z,70.94
2019-03-06T01:27:41.791Z,70.94
2019-03-06T01:28:41.786Z,70.87
2019-03-06T01:29:41.772Z,70.66
2019-03-06T01:30:41.757Z,70.66
2019-03-06T01:31:41.748Z,70.97
2019-03-06T01:32:41.737Z,70.66
2019-03-06T01:33:41.722Z,71.08
2019-03-06T01:34:41.714Z,70.42
2019-03-06T01:35:41.702Z,70.84
2019-03-06T01:36:41.694Z,70.66
2019-03-06T01:37:41.676Z,70.66
2019-03-06T01:38:41.665Z,70.97
2019-03-06T01:39:41.663Z,70.97
2019-03-06T01:40:41.642Z,71.28
2019-03-06T01:41:41.638Z,71.08
2019-03-06T01:42:41.619Z,71.39
2019-03-06T01:43:41.612Z,71.18
2019-03-06T01:44:41.595Z,71.83
2019-03-06T01:45:41.583Z,71.94
2019-03-06T01:46:41.573Z,72.01
2019-03-06T01:47:41.569Z,72.35
2019-03-06T01:48:41.558Z,72.56
2019-03-06T01:49:41.539Z,71.70
2019-03-06T01:50:41.530Z,70.97
2019-03-06T01:51:41.521Z,70.97
2019-03-06T01:52:41.512Z,71.08
2019-03-06T01:53:41.493Z,71.53
2019-03-06T01:54:41.483Z,71.70
2019-03-06T01:55:41.470Z,71.83
2019-03-06T01:56:41.466Z,72.04
2019-03-06T01:57:41.446Z,72.04
2019-03-06T01:58:41.440Z,71.94
2019-03-06T01:59:41.423Z,72.14
2019-03-06T02:00:41.417Z,72.04
2019-03-06T02:01:41.401Z,71.83
2019-03-06T02:02:41.390Z,71.94
2019-03-06T02:03:41.378Z,71.94
2019-03-06T02:04:41.372Z,72.04
2019-03-06T02:05:41.352Z,72.14
2019-03-06T02:06:41.340Z,71.63
2019-03-06T02:07:41.332Z,72.25
2019-03-06T02:08:41.321Z,71.83
2019-03-06T02:09:41.309Z,71.63
2019-03-06T02:10:41.636Z,72.14
2019-03-06T02:11:41.289Z,71.94
2019-03-06T02:12:41.280Z,72.35
2019-03-06T02:13:41.262Z,71.83
2019-03-06T02:14:41.249Z,71.94
2019-03-06T02:15:41.244Z,72.14
2019-03-06T02:16:41.228Z,71.97
2019-03-06T02:17:41.215Z,72.56
2019-03-06T02:18:41.204Z,72.66
2019-03-06T02:19:41.193Z,72.56
2019-03-06T02:20:41.201Z,72.77
2019-03-06T02:21:41.183Z,72.56
2019-03-06T02:22:41.173Z,72.46
2019-03-06T02:23:41.148Z,72.87
2019-03-06T02:24:41.138Z,72.60
2019-03-06T02:25:41.122Z,72.60
2019-03-06T02:26:41.118Z,72.77
2019-03-06T02:27:41.102Z,72.80
2019-03-06T02:28:41.088Z,72.60
2019-03-06T02:29:41.085Z,72.77
2019-03-06T02:30:41.075Z,72.77
2019-03-06T02:31:41.059Z,72.56
2019-03-06T02:32:41.047Z,73.11
2019-03-06T02:33:41.035Z,72.97
2019-03-06T02:34:41.019Z,73.08
2019-03-06T02:35:41.011Z,72.56
2019-03-06T02:36:41.003Z,72.91
2019-03-06T02:37:40.991Z,73.21
2019-03-06T02:38:40.978Z,73.08
2019-03-06T02:39:40.964Z,73.52
2019-03-06T02:40:40.955Z,73.21
2019-03-06T02:41:40.947Z,73.73
2019-03-06T02:42:40.928Z,74.04
2019-03-06T02:43:40.927Z,73.94
2019-03-06T02:44:40.909Z,73.94
2019-03-06T02:45:40.893Z,73.94
2019-03-06T02:46:40.889Z,73.94
2019-03-06T02:47:40.882Z,73.94
2019-03-06T02:48:40.858Z,73.94
2019-03-06T02:49:40.850Z,73.94
2019-03-06T02:50:40.842Z,73.42
2019-03-06T02:51:40.835Z,74.01
2019-03-06T02:52:40.814Z,73.73
2019-03-06T02:53:40.802Z,73.63
2019-03-06T02:54:40.790Z,73.21
2019-03-06T02:55:40.780Z,73.84
2019-03-06T02:56:40.769Z,73.87
2019-03-06T02:57:40.771Z,73.63
2019-03-06T02:58:40.751Z,73.94
2019-03-06T02:59:40.735Z,73.94
2019-03-06T03:00:40.722Z,74.18
2019-03-06T03:01:40.710Z,74.35
2019-03-06T03:02:40.698Z,74.15
2019-03-06T03:03:40.689Z,74.18
2019-03-06T03:04:40.675Z,74.60
2019-03-06T03:05:40.663Z,74.39
2019-03-06T03:06:40.656Z,74.39
2019-03-06T03:07:40.642Z,74.08
2019-03-06T03:08:40.631Z,74.18
2019-03-06T03:09:40.647Z,73.98
2019-03-06T03:10:40.608Z,73.98
2019-03-06T03:11:40.596Z,74.60
2019-03-06T03:12:40.590Z,74.08
2019-03-06T03:13:40.579Z,74.39
2019-03-06T03:14:40.561Z,74.18
2019-03-06T03:15:40.551Z,74.81
2019-03-06T03:16:40.548Z,74.29
2019-03-06T03:17:40.528Z,74.39
2019-03-06T03:18:40.535Z,74.18
2019-03-06T03:19:40.513Z,74.39
2019-03-06T03:20:40.517Z,74.70
2019-03-06T03:21:40.483Z,74.60
2019-03-06T03:22:40.472Z,74.70
2019-03-06T03:23:40.461Z,74.60
2019-03-06T03:24:40.449Z,74.60
2019-03-06T03:25:40.468Z,74.81
2019-03-06T03:26:40.427Z,74.70
2019-03-06T03:27:40.418Z,74.81
2019-03-06T03:28:40.408Z,74.81
2019-03-06T03:29:40.402Z,75.12
2019-03-06T03:30:40.381Z,74.91
2019-03-06T03:31:40.394Z,74.60
2019-03-06T03:32:40.510Z,74.91
2019-03-06T03:33:40.348Z,74.91
2019-03-06T03:34:40.341Z,75.01
2019-03-06T03:35:40.376Z,74.70
2019-03-06T03:36:40.316Z,74.81
2019-03-06T03:37:40.302Z,75.01
2019-03-06T03:38:40.290Z,74.91
2019-03-06T03:39:40.287Z,74.91
2019-03-06T03:40:40.273Z,75.04
2019-03-06T03:41:40.256Z,75.25
2019-03-06T03:42:40.247Z,75.04
2019-03-06T03:43:40.239Z,75.32
2019-03-06T03:44:40.226Z,75.42
2019-03-06T03:45:40.221Z,75.42
2019-03-06T03:46:40.201Z,74.91
2019-03-06T03:47:40.190Z,74.81
2019-03-06T03:48:40.183Z,75.21
2019-03-06T03:49:40.170Z,75.42
2019-03-06T03:50:40.158Z,75.36
2019-03-06T03:51:40.150Z,75.04
2019-03-06T03:52:40.146Z,75.15
2019-03-06T03:53:40.125Z,75.46
2019-03-06T03:54:40.116Z,75.01
2019-03-06T03:55:40.099Z,75.36
2019-03-06T03:56:40.087Z,75.36
2019-03-06T03:57:40.081Z,74.84
2019-03-06T03:58:40.065Z,75.67
2019-03-06T03:59:40.056Z,75.98
2019-03-06T04:00:40.042Z,75.46
2019-03-06T04:01:40.030Z,76.08
2019-03-06T04:02:40.021Z,76.50
2019-03-06T04:03:40.013Z,75.87
2019-03-06T04:04:39.998Z,76.08
2019-03-06T04:05:39.987Z,75.98
2019-03-06T04:06:39.983Z,75.94
2019-03-06T04:07:39.962Z,76.08
2019-03-06T04:08:39.957Z,76.08
2019-03-06T04:09:39.940Z,76.19
2019-03-06T04:10:39.933Z,76.19
2019-03-06T04:11:39.917Z,75.98
2019-03-06T04:12:39.908Z,76.08
2019-03-06T04:13:39.900Z,76.08
2019-03-06T04:14:39.894Z,76.19
2019-03-06T04:15:39.882Z,76.19
2019-03-06T04:16:39.859Z,76.50
2019-03-06T04:17:39.848Z,76.50
2019-03-06T04:18:39.837Z,76.50
2019-03-06T04:19:39.827Z,76.08
2019-03-06T04:20:39.813Z,76.50
2019-03-06T04:21:39.805Z,75.98
2019-03-06T04:22:39.800Z,76.39
2019-03-06T04:23:39.782Z,76.39
2019-03-06T04:24:39.768Z,76.39
2019-03-06T04:25:39.765Z,75.77
2019-03-06T04:26:39.753Z,76.39
2019-03-06T04:27:39.740Z,75.77
2019-03-06T04:28:39.720Z,76.19
2019-03-06T04:29:39.710Z,75.87
2019-03-06T04:30:39.700Z,75.98
2019-03-06T04:31:39.692Z,76.19
2019-03-06T04:32:39.691Z,76.29
2019-03-06T04:33:39.664Z,76.29
2019-03-06T04:34:39.654Z,76.50
2019-03-06T04:35:39.645Z,76.39
2019-03-06T04:36:39.662Z,76.50
2019-03-06T04:37:39.622Z,76.29
2019-03-06T04:38:39.611Z,76.50
2019-03-06T04:39:39.597Z,76.39
2019-03-06T04:40:39.589Z,76.39
2019-03-06T04:41:39.574Z,76.39
2019-03-06T04:42:39.561Z,76.60
2019-03-06T04:43:39.560Z,76.60
2019-03-06T04:44:39.545Z,76.29
2019-03-06T04:45:39.528Z,76.39
2019-03-06T04:46:39.518Z,76.19
2019-03-06T04:47:39.505Z,76.39
2019-03-06T04:48:39.500Z,77.02
2019-03-06T04:49:39.482Z,76.53
2019-03-06T04:50:39.474Z,76.81
2019-03-06T04:51:39.460Z,77.12
2019-03-06T04:52:39.456Z,76.60
2019-03-06T04:53:39.437Z,76.60
2019-03-06T04:54:39.426Z,76.84
2019-03-06T04:55:39.414Z,76.50
2019-03-06T04:56:39.405Z,76.39
2019-03-06T04:57:39.393Z,76.60
2019-03-06T04:58:39.379Z,76.60
2019-03-06T04:59:39.372Z,76.53
2019-03-06T05:00:39.359Z,77.05
2019-03-06T05:01:39.348Z,77.47
2019-03-06T05:02:39.335Z,77.05
2019-03-06T05:03:39.331Z,77.26
2019-03-06T05:04:39.313Z,77.47
2019-03-06T05:05:39.303Z,77.67
2019-03-06T05:06:39.304Z,77.36
2019-03-06T05:07:39.279Z,77.02
2019-03-06T05:08:39.270Z,76.81
2019-03-06T05:09:39.273Z,76.60
2019-03-06T05:10:39.249Z,76.91
2019-03-06T05:11:39.234Z,76.70
2019-03-06T05:12:39.224Z,76.81
2019-03-06T05:13:39.213Z,76.50
2019-03-06T05:14:39.202Z,76.08
2019-03-06T05:15:39.192Z,76.39
2019-03-06T05:16:39.179Z,76.19
2019-03-06T05:17:39.169Z,76.91
2019-03-06T05:18:40.428Z,77.12
2019-03-06T05:19:39.159Z,76.60
2019-03-06T05:20:39.132Z,76.50
2019-03-06T05:21:39.127Z,76.39
2019-03-06T05:22:39.113Z,76.29
2019-03-06T05:23:39.111Z,76.19
2019-03-06T05:24:39.089Z,76.15
2019-03-06T05:25:39.132Z,76.15
2019-03-06T05:26:39.065Z,76.08
2019-03-06T05:27:39.056Z,76.29
2019-03-06T05:28:39.044Z,76.29
2019-03-06T05:29:39.042Z,76.60
2019-03-06T05:30:39.024Z,76.29
2019-03-06T05:31:39.010Z,76.81
2019-03-06T05:32:39.003Z,76.60
2019-03-06T05:33:39.038Z,76.60
2019-03-06T05:34:38.976Z,76.08
2019-03-06T05:35:38.970Z,76.81
2019-03-06T05:36:38.960Z,76.64
2019-03-06T05:37:38.944Z,76.64
2019-03-06T05:38:38.936Z,76.70
2019-03-06T05:39:38.921Z,76.64
2019-03-06T05:40:38.936Z,76.74
2019-03-06T05:41:38.904Z,76.50
2019-03-06T05:42:38.923Z,76.81
2019-03-06T05:43:38.877Z,76.50
2019-03-06T05:44:38.871Z,76.81
2019-03-06T05:45:38.854Z,77.05
2019-03-06T05:46:38.846Z,77.26
2019-03-06T05:47:38.841Z,77.47
2019-03-06T05:48:38.821Z,77.47
2019-03-06T05:49:38.814Z,77.36
2019-03-06T05:50:38.799Z,77.16
2019-03-06T05:51:38.790Z,76.74
2019-03-06T05:52:38.779Z,77.36
2019-03-06T05:53:38.766Z,76.95
2019-03-06T05:54:38.763Z,77.16
2019-03-06T05:55:38.743Z,77.57
2019-03-06T05:56:38.732Z,77.67
2019-03-06T05:57:38.728Z,77.47
2019-03-06T05:58:38.712Z,77.47
2019-03-06T05:59:38.727Z,77.57
2019-03-06T06:00:38.716Z,77.19
2019-03-06T06:01:38.726Z,77.47
2019-03-06T06:02:38.721Z,77.47
2019-03-06T06:03:38.660Z,77.57
2019-03-06T06:04:38.665Z,77.57
2019-03-06T06:05:38.668Z,76.95
2019-03-06T06:06:38.670Z,77.88
2019-03-06T06:07:38.610Z,77.78
2019-03-06T06:08:38.605Z,77.47
2019-03-06T06:09:38.588Z,77.57
2019-03-06T06:10:38.576Z,77.16
2019-03-06T06:11:38.569Z,77.33
2019-03-06T06:12:38.557Z,77.33
2019-03-06T06:13:38.553Z,76.60
2019-03-06T06:14:38.577Z,76.70
2019-03-06T06:15:38.523Z,77.02
2019-03-06T06:16:38.512Z,76.77
2019-03-06T06:17:38.499Z,76.46
2019-03-06T06:18:38.493Z,76.56
2019-03-06T06:19:38.480Z,76.36
2019-03-06T06:20:38.465Z,76.36
2019-03-06T06:21:38.458Z,76.01
2019-03-06T06:22:38.446Z,76.22
2019-03-06T06:23:38.435Z,76.15
2019-03-06T06:24:38.430Z,75.60
2019-03-06T06:25:38.410Z,75.39
2019-03-06T06:26:38.399Z,75.81
2019-03-06T06:27:38.388Z,75.81
2019-03-06T06:28:38.376Z,75.08
2019-03-06T06:29:38.374Z,75.15
2019-03-06T06:30:38.359Z,75.25
2019-03-06T06:31:38.350Z,74.73
2019-03-06T06:32:38.333Z,74.63
2019-03-06T06:33:38.320Z,74.53
2019-03-06T06:34:38.307Z,74.42
2019-03-06T06:35:38.299Z,74.42
2019-03-06T06:36:38.291Z,74.63
2019-03-06T06:37:38.276Z,74.32
2019-03-06T06:38:38.267Z,74.18
2019-03-06T06:39:38.257Z,74.42
2019-03-06T06:40:38.243Z,73.87
2019-03-06T06:41:38.266Z,74.53
2019-03-06T06:42:38.227Z,73.98
2019-03-06T06:43:38.222Z,74.39
2019-03-06T06:44:38.196Z,73.66
2019-03-06T06:45:38.185Z,73.74
2019-03-06T06:46:38.180Z,72.46
2019-03-06T06:47:38.163Z,71.94
2019-03-06T06:48:38.149Z,71.81
2019-03-06T06:49:38.141Z,70.74
2019-03-06T06:50:38.129Z,70.81
2019-03-06T06:51:38.116Z,69.98
2019-03-06T06:52:38.107Z,69.88
2019-03-06T06:53:38.095Z,70.19
2019-03-06T06:54:38.085Z,70.09
2019-03-06T06:55:38.075Z,69.88
2019-03-06T06:56:38.060Z,69.50
2019-03-06T06:57:38.049Z,69.92
2019-03-06T06:58:38.044Z,69.88
2019-03-06T06:59:38.026Z,70.53
2019-03-06T07:00:38.013Z,70.84
2019-03-06T07:01:38.007Z,70.53
2019-03-06T07:02:37.990Z,70.22
2019-03-06T07:03:37.979Z,70.33
2019-03-06T07:04:37.971Z,70.22
2019-03-06T07:05:37.961Z,70.53
2019-03-06T07:06:37.943Z,70.61
2019-03-06T07:07:37.938Z,69.85
2019-03-06T07:08:37.927Z,69.17
2019-03-06T07:09:37.912Z,67.70
2019-03-06T07:10:37.898Z,66.74
2019-03-06T07:11:37.890Z,65.88
2019-03-06T07:12:37.882Z,65.13
2019-03-06T07:13:37.870Z,64.82
2019-03-06T07:14:37.858Z,64.38
2019-03-06T07:15:37.849Z,64.48
2019-03-06T07:16:37.837Z,63.94
2019-03-06T07:17:37.828Z,63.60
2019-03-06T07:18:37.812Z,63.39
2019-03-06T07:19:37.798Z,62.95
2019-03-06T07:20:37.789Z,62.34
2019-03-06T07:21:37.777Z,61.82
2019-03-06T07:22:37.769Z,61.79
2019-03-06T07:23:37.767Z,61.26
2019-03-06T07:24:37.752Z,60.38
2019-03-06T07:25:37.730Z,58.78
2019-03-06T07:26:37.728Z,57.73
2019-03-06T07:27:37.716Z,56.89
2019-03-06T07:28:37.697Z,56.25
2019-03-06T07:29:37.689Z,55.61
2019-03-06T07:30:37.675Z,54.33
2019-03-06T07:31:37.662Z,54.51
2019-03-06T07:32:37.654Z,53.13
2019-03-06T07:33:37.642Z,52.42
2019-03-06T07:34:37.630Z,51.86
2019-03-06T07:35:37.629Z,51.55
2019-03-06T07:36:37.607Z,51.66
2019-03-06T07:37:37.596Z,51.02
2019-03-06T07:38:37.585Z,49.88
2019-03-06T07:39:37.573Z,48.41
2019-03-06T07:40:37.564Z,48.08
2019-03-06T07:41:37.551Z,47.22
2019-03-06T07:42:37.538Z,47.02
2019-03-06T07:43:37.531Z,45.88
2019-03-06T07:44:37.516Z,46.16
2019-03-06T07:45:37.513Z,45.23
2019-03-06T07:46:37.497Z,45.98
2019-03-06T07:47:37.483Z,48.90
2019-03-06T07:48:37.472Z,51.58
2019-03-06T07:49:44.660Z,50.72
2019-03-06T07:51:01.935Z,49.12
2019-03-06T07:52:01.920Z,48.05
2019-03-06T07:53:01.907Z,46.67
2019-03-06T07:54:01.898Z,45.45
2019-03-06T07:55:01.887Z,45.86
2019-03-06T07:56:01.874Z,45.96
2019-03-06T07:57:01.867Z,45.33
2019-03-06T07:58:01.851Z,44.80
2019-03-06T07:59:01.843Z,44.51
2019-03-06T08:00:01.834Z,46.45
2019-03-06T08:01:01.819Z,48.84
2019-03-06T08:02:01.807Z,51.27
2019-03-06T08:03:01.791Z,52.03
2019-03-06T08:04:01.813Z,52.22
2019-03-06T08:05:01.775Z,51.02
2019-03-06T08:06:01.760Z,48.49
2019-03-06T08:07:01.744Z,46.67
2019-03-06T08:08:01.734Z,45.31
2019-03-06T08:09:01.720Z,43.95
2019-03-06T08:10:01.709Z,42.79
2019-03-06T08:11:01.704Z,42.05
2019-03-06T08:12:01.685Z,41.80
2019-03-06T08:13:01.673Z,40.17
2019-03-06T08:14:01.668Z,41.36
2019-03-06T08:15:01.672Z,44.62
2019-03-06T08:16:01.643Z,43.97
2019-03-06T08:17:01.630Z,44.03
2019-03-06T08:18:01.617Z,42.67
2019-03-06T08:19:01.607Z,42.19
2019-03-06T08:20:01.596Z,42.67
2019-03-06T08:21:01.600Z,41.62
2019-03-06T08:22:01.579Z,41.26
2019-03-06T08:23:01.563Z,41.00
2019-03-06T08:24:01.552Z,41.50
2019-03-06T08:25:01.547Z,39.95
2019-03-06T08:26:01.534Z,39.11
2019-03-06T08:27:01.517Z,39.27
2019-03-06T08:28:01.507Z,37.62
2019-03-06T08:29:01.502Z,37.48
2019-03-06T08:30:01.482Z,36.87
2019-03-06T08:31:01.477Z,35.82
2019-03-06T08:32:01.460Z,35.11
2019-03-06T08:33:01.454Z,35.21
2019-03-06T08:34:01.437Z,35.29
2019-03-06T08:35:01.430Z,34.99
2019-03-06T08:36:01.414Z,35.18
2019-03-06T08:37:01.403Z,35.57
2019-03-06T08:38:01.391Z,35.07
2019-03-06T08:39:01.381Z,34.67
2019-03-06T08:40:01.379Z,33.37
2019-03-06T08:41:04.882Z,34.79
2019-03-06T08:42:01.351Z,35.11
2019-03-06T08:43:01.339Z,34.87
2019-03-06T08:44:01.331Z,34.27
2019-03-06T08:45:01.320Z,34.87
2019-03-06T08:46:01.302Z,34.67
2019-03-06T08:47:01.290Z,33.12
2019-03-06T08:48:01.286Z,33.11
2019-03-06T08:49:01.277Z,33.11
2019-03-06T08:50:01.263Z,32.61
2019-03-06T08:51:01.250Z,32.19
2019-03-06T08:52:01.234Z,32.42
2019-03-06T08:53:01.226Z,34.89
2019-03-06T08:54:01.213Z,35.24
2019-03-06T08:55:01.202Z,38.33
2019-03-06T08:56:01.194Z,39.99
2019-03-06T08:57:01.183Z,40.39
2019-03-06T08:58:01.168Z,41.50
2019-03-06T08:59:01.156Z,44.25
2019-03-06T09:00:01.145Z,46.94
2019-03-06T09:01:01.133Z,45.75
2019-03-06T09:02:01.335Z,44.03
2019-03-06T09:03:01.113Z,41.68
2019-03-06T09:04:01.100Z,39.11
2019-03-06T09:05:01.091Z,38.07
2019-03-06T09:06:01.077Z,38.16
2019-03-06T09:07:01.069Z,37.04
2019-03-06T09:08:01.057Z,38.51
2019-03-06T09:09:02.265Z,41.54
2019-03-06T09:10:01.040Z,41.44
2019-03-06T09:11:03.014Z,40.97
2019-03-06T09:12:01.018Z,38.78
2019-03-06T09:13:01.006Z,37.62
2019-03-06T09:14:00.993Z,36.28
2019-03-06T09:15:00.987Z,37.34
2019-03-06T09:16:00.966Z,37.86
2019-03-06T09:17:00.970Z,39.73
2019-03-06T09:18:08.907Z,40.47
2019-03-06T09:19:25.414Z,40.93
2019-03-06T09:20:34.978Z,41.48
2019-03-06T09:21:49.870Z,38.97
2019-03-06T09:22:49.857Z,36.80
2019-03-06T09:23:49.841Z,36.66
2019-03-06T09:24:49.842Z,36.82
2019-03-06T09:25:49.829Z,39.33
2019-03-06T09:26:49.816Z,39.31
2019-03-06T09:27:49.803Z,37.98
2019-03-06T09:28:49.785Z,38.45
2019-03-06T09:29:49.782Z,37.30
2019-03-06T09:30:49.765Z,36.16
2019-03-06T09:31:49.753Z,36.35
2019-03-06T09:32:49.741Z,36.21
2019-03-06T09:33:49.728Z,35.29
2019-03-06T09:34:49.724Z,35.27
2019-03-06T09:35:49.711Z,34.55
2019-03-06T09:36:49.699Z,34.25
2019-03-06T09:37:49.686Z,34.99
2019-03-06T09:38:49.679Z,34.47
2019-03-06T09:39:49.669Z,33.67
2019-03-06T09:40:49.654Z,36.28
2019-03-06T09:41:49.644Z,36.78
2019-03-06T09:42:49.630Z,36.82
2019-03-06T09:43:49.624Z,36.73
2019-03-06T09:44:49.616Z,37.10
2019-03-06T09:45:49.596Z,35.44
2019-03-06T09:46:49.590Z,35.00
2019-03-06T09:47:49.575Z,35.64
2019-03-06T09:48:49.570Z,35.52
2019-03-06T09:49:49.559Z,35.00
2019-03-06T09:50:49.541Z,34.47
2019-03-06T09:51:49.532Z,33.84
2019-03-06T09:52:49.522Z,32.92
2019-03-06T09:53:49.510Z,33.41
2019-03-06T09:54:49.502Z,32.28
2019-03-06T09:55:49.504Z,32.58
2019-03-06T09:56:49.522Z,33.29
2019-03-06T09:57:49.513Z,33.27
2019-03-06T09:58:49.456Z,32.59
2019-03-06T09:59:49.458Z,33.19
2019-03-06T10:00:49.460Z,32.59
2019-03-06T10:01:49.467Z,32.31
2019-03-06T10:02:49.406Z,33.42
2019-03-06T10:03:49.398Z,34.79
2019-03-06T10:04:49.386Z,35.00
2019-03-06T10:05:49.375Z,35.09
2019-03-06T10:06:49.366Z,34.87
2019-03-06T10:07:49.354Z,34.07
2019-03-06T10:08:49.338Z,34.36
2019-03-06T10:09:58.707Z,35.31
2019-03-06T10:11:17.172Z,36.11
2019-03-06T10:12:13.778Z,36.92
2019-03-06T10:13:13.767Z,36.98
2019-03-06T10:14:13.756Z,35.24
2019-03-06T10:15:13.744Z,34.91
2019-03-06T10:16:13.739Z,34.72
2019-03-06T10:17:13.726Z,34.91
2019-03-06T10:18:13.716Z,34.71
2019-03-06T10:19:13.702Z,35.32
2019-03-06T10:20:13.692Z,35.02
2019-03-06T10:21:13.679Z,35.31
2019-03-06T10:22:13.672Z,34.69
2019-03-06T10:23:13.655Z,35.88
2019-03-06T10:24:13.653Z,37.22
2019-03-06T10:25:13.636Z,36.66
2019-03-06T10:26:13.635Z,35.09
2019-03-06T10:27:13.614Z,33.94
2019-03-06T10:28:13.607Z,32.09
2019-03-06T10:29:13.595Z,31.26
2019-03-06T10:30:13.620Z,31.15
2019-03-06T10:31:13.575Z,31.72
2019-03-06T10:32:13.587Z,32.12
2019-03-06T10:33:13.560Z,32.42
2019-03-06T10:34:13.538Z,31.19
2019-03-06T10:35:13.529Z,31.15
2019-03-06T10:36:13.516Z,30.12
2019-03-06T10:37:13.507Z,29.79
2019-03-06T10:38:16.680Z,28.67
2019-03-06T10:39:13.485Z,28.96
2019-03-06T10:40:13.476Z,28.47
2019-03-06T10:41:13.461Z,29.07
2019-03-06T10:42:13.450Z,29.05
2019-03-06T10:43:13.441Z,28.35
2019-03-06T10:44:13.428Z,27.66
2019-03-06T10:45:13.419Z,28.17
2019-03-06T10:46:13.414Z,28.71
2019-03-06T10:47:13.398Z,29.13
2019-03-06T10:48:13.389Z,29.42
2019-03-06T10:49:13.381Z,29.42
2019-03-06T10:50:13.366Z,28.91
2019-03-06T10:51:13.362Z,29.02
2019-03-06T10:52:13.342Z,29.12
2019-03-06T10:53:13.334Z,29.85
2019-03-06T10:54:13.325Z,30.24
2019-03-06T10:55:13.309Z,28.93
2019-03-06T10:56:13.314Z,28.51
2019-03-06T10:57:13.287Z,29.21
2019-03-06T10:58:13.280Z,30.01
2019-03-06T10:59:13.270Z,29.72
2019-03-06T11:00:13.254Z,29.82
2019-03-06T11:01:13.253Z,30.12
2019-03-06T11:02:13.233Z,30.43
2019-03-06T11:03:13.365Z,30.22
2019-03-06T11:04:13.214Z,30.02
2019-03-06T11:05:13.202Z,29.82
2019-03-06T11:06:13.191Z,30.54
2019-03-06T11:07:13.179Z,30.43
2019-03-06T11:08:13.169Z,28.74
2019-03-06T11:09:13.163Z,30.41
2019-03-06T11:10:13.147Z,30.23
2019-03-06T11:11:13.143Z,30.03
2019-03-06T11:12:13.126Z,30.35
2019-03-06T11:13:13.113Z,30.95
2019-03-06T11:14:13.104Z,30.95
2019-03-06T11:15:13.159Z,30.96
2019-03-06T11:16:13.091Z,31.37
2019-03-06T11:17:13.073Z,31.40
2019-03-06T11:18:13.058Z,31.42
2019-03-06T11:19:13.058Z,31.14
2019-03-06T11:20:13.060Z,31.05
2019-03-06T11:21:13.027Z,31.35
2019-03-06T11:22:13.021Z,31.45
2019-03-06T11:23:13.008Z,30.36
2019-03-06T11:24:12.994Z,30.99
2019-03-06T11:25:12.985Z,32.50
2019-03-06T11:26:12.981Z,31.50
2019-03-06T11:27:12.966Z,32.44
2019-03-06T11:28:12.949Z,32.34
2019-03-06T11:29:12.938Z,31.74
2019-03-06T11:30:12.933Z,31.32
2019-03-06T11:31:12.923Z,31.32
2019-03-06T11:32:12.907Z,31.22
2019-03-06T11:33:12.900Z,31.32
2019-03-06T11:34:12.885Z,31.12
2019-03-06T11:35:12.872Z,31.62
2019-03-06T11:36:12.866Z,31.54
2019-03-06T11:37:12.850Z,31.54
2019-03-06T11:38:12.840Z,31.04
2019-03-06T11:39:12.826Z,31.44
2019-03-06T11:40:12.818Z,31.53
2019-03-06T11:41:12.808Z,31.22
2019-03-06T11:42:12.795Z,31.45
2019-03-06T11:43:12.786Z,33.01
2019-03-06T11:44:12.774Z,33.21
2019-03-06T11:45:12.759Z,33.08
2019-03-06T11:46:12.754Z,32.49
2019-03-06T11:47:12.737Z,32.47
2019-03-06T11:48:12.738Z,31.96
2019-03-06T11:49:12.717Z,33.61
2019-03-06T11:50:12.707Z,31.89
2019-03-06T11:51:12.695Z,31.07
2019-03-06T11:52:12.686Z,31.35
2019-03-06T11:53:12.672Z,31.45
2019-03-06T11:54:12.666Z,32.61
2019-03-06T11:55:12.650Z,32.74
2019-03-06T11:56:12.636Z,33.14
2019-03-06T11:57:12.626Z,32.42
2019-03-06T11:58:12.808Z,31.20
2019-03-06T11:59:12.608Z,31.48
2019-03-06T12:00:14.782Z,32.30
2019-03-06T12:01:12.582Z,31.18
2019-03-06T12:02:12.577Z,31.39
2019-03-06T12:03:12.566Z,31.59
2019-03-06T12:04:12.548Z,31.28
2019-03-06T12:05:12.536Z,31.47
2019-03-06T12:06:12.531Z,31.35
2019-03-06T12:07:12.517Z,31.14
2019-03-06T12:08:12.506Z,30.62
2019-03-06T12:09:12.492Z,30.21
2019-03-06T12:10:12.484Z,30.21
2019-03-06T12:11:12.469Z,29.99
2019-03-06T12:12:12.457Z,30.18
2019-03-06T12:13:12.446Z,28.96
2019-03-06T12:14:12.435Z,28.64
2019-03-06T12:15:12.427Z,29.18
2019-03-06T12:16:12.421Z,29.46
2019-03-06T12:17:12.408Z,29.06
2019-03-06T12:18:12.393Z,29.36
2019-03-06T12:19:12.380Z,29.96
2019-03-06T12:20:12.376Z,30.89
2019-03-06T12:21:12.360Z,30.79
2019-03-06T12:22:12.347Z,29.98
2019-03-06T12:23:12.337Z,29.44
2019-03-06T12:24:13.158Z,29.40
2019-03-06T12:25:12.315Z,27.90
2019-03-06T12:26:12.303Z,29.02
2019-03-06T12:27:12.292Z,28.94
2019-03-06T12:28:12.282Z,29.46
2019-03-06T12:29:12.270Z,30.07
2019-03-06T12:30:12.262Z,30.60
2019-03-06T12:31:12.251Z,31.12
2019-03-06T12:32:12.238Z,30.93
2019-03-06T12:33:12.227Z,31.44
2019-03-06T12:34:12.224Z,31.97
2019-03-06T12:35:12.204Z,32.61
2019-03-06T12:36:12.223Z,33.19
2019-03-06T12:37:12.181Z,32.98
2019-03-06T12:38:12.170Z,33.81
2019-03-06T12:39:12.165Z,33.70
2019-03-06T12:40:14.690Z,32.89
2019-03-06T12:41:12.770Z,32.98
2019-03-06T12:42:14.560Z,32.56
2019-03-06T12:43:12.115Z,32.86
2019-03-06T12:44:12.105Z,32.24
2019-03-06T12:45:12.096Z,31.14
2019-03-06T12:46:12.089Z,31.61
2019-03-06T12:47:12.074Z,32.78
2019-03-06T12:48:12.058Z,33.71
2019-03-06T12:49:12.050Z,34.35
2019-03-06T12:50:12.042Z,33.86
2019-03-06T12:51:12.025Z,34.27
2019-03-06T12:52:12.014Z,33.64
2019-03-06T12:53:12.951Z,33.43
2019-03-06T12:54:12.031Z,33.51